Midland, South Dakota
Current Conditions -  °F | °C
As of 5:55 AM on Thursday 30 Oct 2014 (Local Time) from KPHP Reporting Station
Clear Clear  
Wind Chill: 30°   Ceiling: Unl
Heat Index: 36°   Visibility: 10mi
Dew Point: 31°   Wind: 8mph
Humidity: 82%   Direction: 240°WSW
Pressure: 30.19"   Gusts: NA
Location:  44.07°N, 101.16°W
Report Text: KPHP 301155Z AUTO 24007KT 10SM CLR 02/M01 A3019 RMK AO2 SLP227 T00221006 10050 20017 53024
Loading
Personal Weather Stations






























Interactive Weather Map
Tropical Storm Tracking
New forecast layout! Learn more

10-Day Weather Forecast

Advertisements
Track Severe Weather on mobile